Capitol Logistics 2216


KSDF
Louisville International Airport-Standiford Field
Louisville, Kentucky, US
KRFD
Chicago/Rockford International Airport
Rockford, Illinois, US

Activity Log

Date Flight Route Aircraft Duration
01/29/2020 CPX2216 SHB BVT JOT B763 1h 10m
12/02/2019 CPX2216 SHB BVT JOT B763 1h 13m
11/28/2019 CPX2216 SHB BVT JOT B763 1h 07m
11/21/2019 CPX2216 SHB BVT JOT B763 1h 13m

Route Details

Aircraft Information
Primary: Boeing 767-300BDSF
Backup: Boeing 757-200SF
Date Restrictions
Between:Nov 16, 2019
Dec 31, 2019
Route Data
Distance: 287nm
Sched. Duration: 0h 54m
Avg. Duration: 1h 11m (+57m)
Times Flown: 4
Recm'd Route: SHB BVT JOT
Planned Altitude: 30,000ft
Origin Wx: KSDF 240856Z 11005KT 10SM FEW080 OVC110 01/M10 A3018 RMK AO2 SLP224 T00111100 58019
Dest. Wx: KRFD 240854Z 13006KT 2SM -SN OVC023 M02/M06 A3012 RMK AO2 SFC VIS 7 SNB0757 SLP210 P0002 60002 T10221061 56020
Notes: SEASONAL FLIGHT | UPS SURGE OPS CONTRACT

Financial History
Total Freight: 241,896lbs
Average Load: 60,474lbs/flt
Fuel Used: 45,152lbs
Avg. Fuel Used: 11,288lbs/flt
Fuel Expense: $36,573
Avg. Fuel Expense: $9,143
Avg. Fuel Cost: $0.81/lbs
Total Gross Income: $355,587
Pilot Pay: $846
Total Expenses: $38,611
Total Revenue: $279,077
Average Revenue: $88,896.78